createdAt,value
2018-09-11T00:01:34.498Z,36.59
2018-09-11T00:04:01.148Z,36.55
2018-09-11T00:06:27.795Z,36.65
2018-09-11T00:08:54.556Z,36.74
2018-09-11T00:11:21.264Z,36.66
2018-09-11T00:13:47.914Z,36.72
2018-09-11T00:16:14.549Z,36.75
2018-09-11T00:18:41.195Z,36.80
2018-09-11T00:21:07.875Z,36.72
2018-09-11T00:23:34.594Z,36.76
2018-09-11T00:26:02.446Z,36.76
2018-09-11T00:28:27.881Z,36.85
2018-09-11T00:30:54.528Z,36.88
2018-09-11T00:33:21.166Z,36.88
2018-09-11T00:35:48.061Z,36.83
2018-09-11T00:38:14.721Z,36.86
2018-09-11T00:40:41.371Z,36.84
2018-09-11T00:43:08.021Z,36.93
2018-09-11T00:45:34.661Z,36.89
2018-09-11T00:48:01.301Z,37.00
2018-09-11T00:50:27.934Z,37.00
2018-09-11T00:52:54.637Z,37.01
2018-09-11T00:55:21.273Z,37.03
2018-09-11T00:57:47.967Z,37.02
2018-09-11T01:00:17.555Z,37.06
2018-09-11T01:02:44.228Z,37.01
2018-09-11T01:05:10.890Z,36.96
2018-09-11T01:07:37.581Z,37.04
2018-09-11T01:10:04.315Z,37.04
2018-09-11T01:12:30.881Z,37.07
2018-09-11T01:14:57.529Z,37.08
2018-09-11T01:17:24.164Z,37.15
2018-09-11T01:19:50.891Z,37.06
2018-09-11T01:22:20.214Z,37.09
2018-09-11T01:24:47.013Z,37.17
2018-09-11T01:27:13.743Z,37.14
2018-09-11T01:29:40.380Z,37.13
2018-09-11T01:32:07.132Z,37.05
2018-09-11T01:34:33.748Z,37.14
2018-09-11T01:37:02.521Z,37.24
2018-09-11T01:39:27.035Z,37.21
2018-09-11T01:41:53.708Z,37.15
2018-09-11T01:44:20.441Z,37.18
2018-09-11T01:46:47.119Z,37.28
2018-09-11T01:49:13.727Z,37.18
2018-09-11T01:51:40.362Z,37.17
2018-09-11T01:54:08.342Z,37.29
2018-09-11T01:56:33.788Z,37.25
2018-09-11T01:59:00.471Z,37.26
2018-09-11T02:01:27.151Z,37.22
2018-09-11T02:03:53.770Z,37.26
2018-09-11T02:06:20.412Z,37.27
2018-09-11T02:08:47.100Z,37.33
2018-09-11T02:11:13.737Z,37.20
2018-09-11T02:13:40.382Z,37.42
2018-09-11T02:16:07.042Z,37.45
2018-09-11T02:18:33.679Z,37.26
2018-09-11T02:21:00.318Z,37.42
2018-09-11T02:23:26.958Z,37.37
2018-09-11T02:25:53.696Z,37.35
2018-09-11T02:28:20.336Z,37.36
2018-09-11T02:30:46.968Z,37.38
2018-09-11T02:33:13.623Z,37.44
2018-09-11T02:35:40.329Z,37.45
2018-09-11T02:38:06.935Z,37.48
2018-09-11T02:40:33.902Z,37.50
2018-09-11T02:43:00.555Z,37.42
2018-09-11T02:45:27.204Z,37.48
2018-09-11T02:47:53.881Z,37.43
2018-09-11T02:50:20.542Z,37.47
2018-09-11T02:52:47.182Z,37.34
2018-09-11T02:55:13.898Z,37.44
2018-09-11T02:57:40.542Z,37.44
2018-09-11T03:00:07.203Z,37.46
2018-09-11T03:02:33.849Z,37.46
2018-09-11T03:05:00.575Z,37.47
2018-09-11T03:07:27.257Z,37.23
2018-09-11T03:09:53.886Z,37.63
2018-09-11T03:12:20.493Z,37.81
2018-09-11T03:14:47.164Z,37.57
2018-09-11T03:17:13.801Z,37.99
2018-09-11T03:19:40.456Z,38.05
2018-09-11T03:22:09.836Z,37.93
2018-09-11T03:24:36.442Z,38.08
2018-09-11T03:27:03.074Z,38.16
2018-09-11T03:29:29.768Z,38.15
2018-09-11T03:31:56.439Z,38.10
2018-09-11T03:34:23.100Z,38.22
2018-09-11T03:36:49.727Z,38.11
2018-09-11T03:39:16.443Z,37.70
2018-09-11T03:41:43.082Z,37.94
2018-09-11T03:44:11.087Z,38.12
2018-09-11T03:46:36.376Z,38.36
2018-09-11T03:49:03.030Z,38.08
2018-09-11T03:51:29.667Z,38.35
2018-09-11T03:53:56.348Z,38.24
2018-09-11T03:56:22.998Z,38.10
2018-09-11T03:58:50.171Z,37.98
2018-09-11T04:01:17.114Z,37.94
2018-09-11T04:03:43.806Z,38.08
2018-09-11T04:06:10.476Z,38.00
2018-09-11T04:08:37.109Z,37.91
2018-09-11T04:11:03.768Z,37.71
2018-09-11T04:13:30.493Z,37.74
2018-09-11T04:15:57.139Z,37.73
2018-09-11T04:18:23.776Z,37.71
2018-09-11T04:20:50.419Z,37.69
2018-09-11T04:23:17.052Z,37.64
2018-09-11T04:25:43.711Z,37.60
2018-09-11T04:28:12.746Z,37.51
2018-09-11T04:30:39.370Z,37.28
2018-09-11T04:33:06.010Z,37.06
2018-09-11T04:35:32.648Z,36.84
2018-09-11T04:37:59.387Z,36.92
2018-09-11T04:40:26.151Z,36.95
2018-09-11T04:42:52.784Z,36.71
2018-09-11T04:45:19.478Z,36.63
2018-09-11T04:47:46.178Z,36.60
2018-09-11T04:50:12.828Z,36.51
2018-09-11T04:52:39.590Z,36.45
2018-09-11T04:55:06.319Z,36.42
2018-09-11T04:57:33.079Z,36.26
2018-09-11T04:59:59.815Z,36.13
2018-09-11T05:02:26.449Z,35.98
2018-09-11T05:04:53.098Z,35.78
2018-09-11T05:07:19.733Z,35.68
2018-09-11T05:09:46.387Z,35.78
2018-09-11T05:12:13.162Z,35.75
2018-09-11T05:14:39.817Z,35.67
2018-09-11T05:17:06.475Z,35.52
2018-09-11T05:19:33.227Z,35.43
2018-09-11T05:21:59.856Z,35.40
2018-09-11T05:24:26.538Z,35.34
2018-09-11T05:26:53.196Z,35.22
2018-09-11T05:29:19.966Z,35.08
2018-09-11T05:31:46.590Z,35.03
2018-09-11T05:34:13.277Z,35.11
2018-09-11T05:36:40.005Z,34.90
2018-09-11T05:39:06.741Z,35.01
2018-09-11T05:41:33.507Z,34.87
2018-09-11T05:44:00.216Z,34.95
2018-09-11T05:46:26.912Z,35.08
2018-09-11T05:48:56.921Z,35.08
2018-09-11T05:51:23.616Z,35.05
2018-09-11T05:53:51.645Z,35.38
2018-09-11T05:56:16.942Z,35.18
2018-09-11T05:58:44.979Z,35.24
2018-09-11T06:01:10.323Z,35.04
2018-09-11T06:03:37.020Z,34.98
2018-09-11T06:06:03.693Z,35.31
2018-09-11T06:08:30.639Z,35.88
2018-09-11T06:10:57.297Z,35.74
2018-09-11T06:13:24.046Z,35.45
2018-09-11T06:15:50.747Z,35.19
2018-09-11T06:18:17.394Z,34.96
2018-09-11T06:20:44.051Z,35.15
2018-09-11T06:23:10.716Z,35.03
2018-09-11T06:25:37.428Z,34.98
2018-09-11T06:28:04.071Z,35.22
2018-09-11T06:30:30.866Z,35.48
2018-09-11T06:32:57.614Z,35.69
2018-09-11T06:35:24.325Z,35.76
2018-09-11T06:37:51.076Z,35.47
2018-09-11T06:40:19.105Z,35.97
2018-09-11T06:42:44.560Z,36.22
2018-09-11T06:45:11.423Z,36.37
2018-09-11T06:47:38.249Z,36.27
2018-09-11T06:50:04.889Z,36.04
2018-09-11T06:52:36.236Z,35.77
2018-09-11T06:54:58.243Z,36.10
2018-09-11T06:57:24.973Z,36.66
2018-09-11T06:59:51.625Z,37.01
2018-09-11T07:02:18.270Z,36.77
2018-09-11T07:04:45.041Z,36.65
2018-09-11T07:07:11.688Z,36.24
2018-09-11T07:09:39.530Z,36.28
2018-09-11T07:12:07.476Z,36.66
2018-09-11T07:14:33.020Z,36.71
2018-09-11T07:16:59.684Z,36.45
2018-09-11T07:19:26.380Z,36.38
2018-09-11T07:21:53.013Z,36.38
2018-09-11T07:24:19.659Z,36.53
2018-09-11T07:26:46.356Z,36.38
2018-09-11T07:29:13.029Z,36.48
2018-09-11T07:31:39.831Z,36.51
2018-09-11T07:34:06.496Z,36.55
2018-09-11T07:36:33.178Z,36.63
2018-09-11T07:39:03.235Z,36.90
2018-09-11T07:41:28.594Z,36.76
2018-09-11T07:43:55.306Z,36.92
2018-09-11T07:46:22.082Z,36.82
2018-09-11T07:48:48.683Z,37.14
2018-09-11T07:51:15.375Z,37.58
2018-09-11T07:53:42.023Z,37.67
2018-09-11T07:56:08.774Z,37.40
2018-09-11T07:58:35.471Z,36.73
2018-09-11T08:01:02.104Z,36.58
2018-09-11T08:03:28.810Z,37.11
2018-09-11T08:05:56.860Z,37.38
2018-09-11T08:08:22.154Z,37.16
2018-09-11T08:10:48.967Z,36.75
2018-09-11T08:13:15.585Z,36.14
2018-09-11T08:15:42.273Z,36.58
2018-09-11T08:18:09.072Z,36.84
2018-09-11T08:20:35.819Z,37.44
2018-09-11T08:23:02.527Z,36.87
2018-09-11T08:25:29.215Z,36.67
2018-09-11T08:27:55.902Z,36.30
2018-09-11T08:30:22.572Z,36.44
2018-09-11T08:32:49.317Z,37.01
2018-09-11T08:35:16.030Z,36.70
2018-09-11T08:37:42.671Z,36.20
2018-09-11T08:40:09.332Z,35.94
2018-09-11T08:42:35.988Z,35.34
2018-09-11T08:45:02.647Z,35.81
2018-09-11T08:47:29.418Z,36.08
2018-09-11T08:49:56.153Z,36.06
2018-09-11T08:52:22.832Z,35.97
2018-09-11T08:54:49.445Z,35.62
2018-09-11T08:57:16.140Z,35.52
2018-09-11T08:59:42.827Z,35.31
2018-09-11T09:02:09.544Z,35.17
2018-09-11T09:04:45.439Z,35.17
2018-09-11T09:07:12.106Z,34.96
2018-09-11T09:09:38.755Z,34.88
2018-09-11T09:12:05.496Z,34.89
2018-09-11T09:14:32.173Z,34.69
2018-09-11T09:16:58.832Z,35.15
2018-09-11T09:19:25.522Z,35.09
2018-09-11T09:21:52.179Z,34.87
2018-09-11T09:24:18.908Z,34.78
2018-09-11T09:26:45.561Z,34.73
2018-09-11T09:29:12.219Z,34.76
2018-09-11T09:31:38.921Z,34.73
2018-09-11T09:34:05.996Z,34.98
2018-09-11T09:36:35.964Z,35.15
2018-09-11T09:39:02.608Z,35.04
2018-09-11T09:41:29.260Z,35.33
2018-09-11T09:43:56.054Z,36.09
2018-09-11T09:46:22.658Z,35.45
2018-09-11T09:48:49.377Z,34.90
2018-09-11T09:51:16.068Z,34.77
2018-09-11T09:53:43.118Z,34.84
2018-09-11T09:56:09.832Z,34.71
2018-09-11T09:58:36.614Z,34.45
2018-09-11T10:01:03.359Z,36.17
2018-09-11T10:03:30.123Z,36.56
2018-09-11T10:05:56.835Z,35.72
2018-09-11T10:08:23.504Z,35.28
2018-09-11T10:10:50.161Z,34.99
2018-09-11T10:13:16.905Z,34.76
2018-09-11T10:15:43.623Z,34.95
2018-09-11T10:18:10.314Z,35.29
2018-09-11T10:20:36.995Z,35.19
2018-09-11T10:23:05.933Z,34.99
2018-09-11T10:25:32.617Z,35.10
2018-09-11T10:27:59.397Z,36.19
2018-09-11T10:30:26.016Z,35.97
2018-09-11T10:32:52.697Z,35.47
2018-09-11T10:35:19.455Z,35.01
2018-09-11T10:37:46.093Z,34.87
2018-09-11T10:40:12.778Z,35.07
2018-09-11T10:42:39.428Z,35.24
2018-09-11T10:45:06.182Z,34.88
2018-09-11T10:47:32.877Z,34.71
2018-09-11T10:49:59.755Z,35.11
2018-09-11T10:52:26.537Z,35.72
2018-09-11T10:54:53.214Z,35.69
2018-09-11T10:57:22.336Z,36.12
2018-09-11T10:59:49.054Z,35.68
2018-09-11T11:02:15.705Z,35.37
2018-09-11T11:04:45.762Z,35.18
2018-09-11T11:07:12.516Z,35.30
2018-09-11T11:09:39.201Z,35.19
2018-09-11T11:12:05.841Z,35.05
2018-09-11T11:14:32.500Z,35.35
2018-09-11T11:17:02.284Z,35.11
2018-09-11T11:19:28.892Z,36.07
2018-09-11T11:21:55.561Z,36.11
2018-09-11T11:24:22.269Z,36.29
2018-09-11T11:26:48.930Z,37.06
2018-09-11T11:29:15.625Z,36.51
2018-09-11T11:31:45.174Z,35.98
2018-09-11T11:34:14.727Z,36.11
2018-09-11T11:36:41.567Z,36.14
2018-09-11T11:39:08.123Z,36.74
2018-09-11T11:41:34.818Z,36.97
2018-09-11T11:44:01.856Z,36.19
2018-09-11T11:46:28.568Z,35.82
2018-09-11T11:48:55.215Z,35.85
2018-09-11T11:51:24.805Z,35.71
2018-09-11T11:53:48.783Z,35.44
2018-09-11T11:56:15.452Z,36.58
2018-09-11T11:58:42.112Z,36.77
2018-09-11T12:01:08.897Z,36.16
2018-09-11T12:03:35.551Z,35.48
2018-09-11T12:06:02.237Z,35.36
2018-09-11T12:08:28.910Z,35.24
2018-09-11T12:10:55.595Z,35.52
2018-09-11T12:13:22.245Z,35.08
2018-09-11T12:15:48.904Z,34.58
2018-09-11T12:18:15.576Z,34.54
2018-09-11T12:20:45.135Z,35.35
2018-09-11T12:23:15.105Z,34.92
2018-09-11T12:25:40.460Z,34.17
2018-09-11T12:28:10.176Z,33.83
2018-09-11T12:30:36.776Z,34.19
2018-09-11T12:33:03.423Z,35.06
2018-09-11T12:35:30.071Z,34.07
2018-09-11T12:37:56.858Z,33.64
2018-09-11T12:40:23.604Z,33.59
2018-09-11T12:42:50.392Z,34.42
2018-09-11T12:45:17.041Z,34.54
2018-09-11T12:47:44.271Z,33.75
2018-09-11T12:50:10.423Z,33.32
2018-09-11T12:52:37.163Z,32.82
2018-09-11T12:55:03.783Z,33.72
2018-09-11T12:57:30.503Z,34.14
2018-09-11T12:59:57.134Z,33.65
2018-09-11T13:02:23.900Z,33.12
2018-09-11T13:04:50.490Z,32.77
2018-09-11T13:07:18.613Z,32.78
2018-09-11T13:09:47.923Z,33.74
2018-09-11T13:12:14.728Z,33.05
2018-09-11T13:14:41.379Z,32.64
2018-09-11T13:17:08.040Z,32.56
2018-09-11T13:19:34.690Z,32.02
2018-09-11T13:22:01.398Z,32.83
2018-09-11T13:24:28.090Z,32.76
2018-09-11T13:26:56.103Z,32.35
2018-09-11T13:29:21.437Z,31.95
2018-09-11T13:31:48.205Z,32.44
2018-09-11T13:34:14.813Z,32.78
2018-09-11T13:36:41.460Z,32.97
2018-09-11T13:39:08.261Z,32.41
2018-09-11T13:41:34.898Z,32.11
2018-09-11T13:44:01.577Z,31.91
2018-09-11T13:46:29.612Z,32.12
2018-09-11T13:48:54.897Z,31.44
2018-09-11T13:51:21.615Z,31.84
2018-09-11T13:53:48.272Z,32.15
2018-09-11T13:56:14.968Z,31.84
2018-09-11T13:58:41.606Z,32.77
2018-09-11T14:01:08.218Z,33.23
2018-09-11T14:03:34.970Z,32.70
2018-09-11T14:06:01.589Z,32.35
2018-09-11T14:08:28.233Z,32.03
2018-09-11T14:10:54.878Z,31.79
2018-09-11T14:13:21.563Z,31.72
2018-09-11T14:15:48.269Z,31.55
2018-09-11T14:18:14.994Z,31.43
2018-09-11T14:20:41.658Z,32.73
2018-09-11T14:23:08.292Z,32.33
2018-09-11T14:25:34.992Z,31.72
2018-09-11T14:28:01.579Z,31.35
2018-09-11T14:30:28.262Z,31.25
2018-09-11T14:32:54.892Z,30.91
2018-09-11T14:35:21.681Z,30.90
2018-09-11T14:37:48.335Z,30.74
2018-09-11T14:40:15.022Z,30.69
2018-09-11T14:42:43.034Z,30.63
2018-09-11T14:45:08.366Z,30.55
2018-09-11T14:47:35.038Z,30.68
2018-09-11T14:50:01.694Z,30.58
2018-09-11T14:52:28.368Z,30.43
2018-09-11T14:54:55.044Z,30.42
2018-09-11T14:57:21.752Z,30.51
2018-09-11T14:59:49.588Z,30.45
2018-09-11T15:02:16.235Z,30.34
2018-09-11T15:04:42.921Z,30.51
2018-09-11T15:07:09.561Z,30.64
2018-09-11T15:09:36.275Z,30.28
2018-09-11T15:12:02.916Z,30.54
2018-09-11T15:14:29.553Z,30.45
2018-09-11T15:16:56.294Z,30.48
2018-09-11T15:19:22.935Z,30.69
2018-09-11T15:21:49.633Z,30.80
2018-09-11T15:24:19.342Z,30.72
2018-09-11T15:26:46.021Z,30.57
2018-09-11T15:29:12.656Z,30.65
2018-09-11T15:31:39.344Z,30.77
2018-09-11T15:34:05.994Z,30.71
2018-09-11T15:36:32.706Z,30.79
2018-09-11T15:38:59.404Z,30.86
2018-09-11T15:41:26.045Z,30.80
2018-09-11T15:43:52.774Z,30.92
2018-09-11T15:46:19.398Z,30.93
2018-09-11T15:48:46.059Z,31.12
2018-09-11T15:51:12.736Z,31.15
2018-09-11T15:53:39.383Z,31.08
2018-09-11T15:56:06.016Z,31.19
2018-09-11T15:58:32.713Z,31.26
2018-09-11T16:00:59.356Z,31.31
2018-09-11T16:03:32.341Z,31.26
2018-09-11T16:05:59.043Z,31.34
2018-09-11T16:08:25.819Z,31.44
2018-09-11T16:10:55.403Z,31.37
2018-09-11T16:13:22.161Z,31.37
2018-09-11T16:15:48.849Z,31.50
2018-09-11T16:18:15.545Z,31.62
2018-09-11T16:20:42.281Z,31.67
2018-09-11T16:23:09.291Z,31.64
2018-09-11T16:25:36.000Z,31.89
2018-09-11T16:28:02.604Z,31.83
2018-09-11T16:30:29.281Z,31.90
2018-09-11T16:32:55.917Z,32.12
2018-09-11T16:35:22.584Z,32.05
2018-09-11T16:37:51.814Z,32.10
2018-09-11T16:40:18.453Z,32.31
2018-09-11T16:42:45.193Z,32.27
2018-09-11T16:45:11.840Z,32.41
2018-09-11T16:47:38.496Z,32.37
2018-09-11T16:50:05.135Z,32.47
2018-09-11T16:52:31.781Z,32.49
2018-09-11T16:54:58.419Z,32.57
2018-09-11T16:57:25.118Z,32.63
2018-09-11T16:59:54.926Z,32.78
2018-09-11T17:02:21.672Z,32.63
2018-09-11T17:04:48.311Z,32.59
2018-09-11T17:07:14.963Z,32.90
2018-09-11T17:09:41.687Z,32.95
2018-09-11T17:12:08.332Z,33.09
2018-09-11T17:14:34.988Z,33.07
2018-09-11T17:17:02.989Z,33.13
2018-09-11T17:19:28.476Z,33.07
2018-09-11T17:21:55.122Z,33.04
2018-09-11T17:24:21.775Z,32.94
2018-09-11T17:26:48.561Z,33.07
2018-09-11T17:29:15.164Z,33.00
2018-09-11T17:31:41.801Z,33.14
2018-09-11T17:34:08.512Z,33.08
2018-09-11T17:36:35.147Z,32.92
2018-09-11T17:39:01.894Z,33.16
2018-09-11T17:41:28.583Z,33.20
2018-09-11T17:43:56.631Z,33.22
2018-09-11T17:46:23.351Z,33.20
2018-09-11T17:48:48.667Z,33.21
2018-09-11T17:51:15.234Z,33.18
2018-09-11T17:53:41.931Z,33.27
2018-09-11T17:56:08.616Z,33.39
2018-09-11T17:58:35.356Z,33.24
2018-09-11T18:01:02.017Z,33.33
2018-09-11T18:03:32.793Z,33.43
2018-09-11T18:05:58.075Z,33.35
2018-09-11T18:08:27.761Z,33.42
2018-09-11T18:10:54.484Z,33.37
2018-09-11T18:13:21.087Z,33.38
2018-09-11T18:15:47.803Z,33.33
2018-09-11T18:18:14.434Z,33.35
2018-09-11T18:20:41.133Z,33.31
2018-09-11T18:23:07.784Z,33.33
2018-09-11T18:25:34.417Z,33.40
2018-09-11T18:28:01.136Z,33.35
2018-09-11T18:30:27.803Z,33.39
2018-09-11T18:32:54.438Z,33.45
2018-09-11T18:35:21.135Z,33.42
2018-09-11T18:37:47.767Z,33.50
2018-09-11T18:40:15.431Z,33.47
2018-09-11T18:42:42.103Z,33.57
2018-09-11T18:45:08.785Z,33.62
2018-09-11T18:47:35.421Z,33.71
2018-09-11T18:50:02.154Z,33.65
2018-09-11T18:52:31.697Z,33.69
2018-09-11T18:54:58.360Z,33.82
2018-09-11T18:57:25.018Z,33.87
2018-09-11T18:59:51.704Z,33.90
2018-09-11T19:02:18.344Z,33.82
2018-09-11T19:04:45.009Z,33.92
2018-09-11T19:07:11.654Z,33.91
2018-09-11T19:09:38.294Z,34.02
2018-09-11T19:12:05.055Z,34.15
2018-09-11T19:14:31.736Z,34.10
2018-09-11T19:16:58.411Z,34.12
2018-09-11T19:19:25.099Z,34.17
2018-09-11T19:21:51.735Z,34.21
2018-09-11T19:24:18.431Z,34.18
2018-09-11T19:26:45.119Z,34.18
2018-09-11T19:29:14.872Z,34.23
2018-09-11T19:31:41.563Z,34.25
2018-09-11T19:34:09.532Z,34.30
2018-09-11T19:36:35.057Z,34.22
2018-09-11T19:39:01.740Z,34.27
2018-09-11T19:41:28.465Z,34.37
2018-09-11T19:43:55.136Z,34.34
2018-09-11T19:46:21.906Z,34.37
2018-09-11T19:48:48.586Z,34.32
2018-09-11T19:51:15.221Z,34.31
2018-09-11T19:53:41.891Z,34.33
2018-09-11T19:56:09.960Z,34.42
2018-09-11T19:58:35.310Z,34.48
2018-09-11T20:01:01.984Z,34.42
2018-09-11T20:03:28.715Z,34.39
2018-09-11T20:05:58.384Z,34.41
2018-09-11T20:08:26.322Z,34.41
2018-09-11T20:10:51.698Z,34.41
2018-09-11T20:13:18.745Z,34.57
2018-09-11T20:15:45.667Z,34.53
2018-09-11T20:18:12.353Z,34.53
2018-09-11T20:20:38.985Z,34.56
2018-09-11T20:23:05.661Z,34.56
2018-09-11T20:25:32.419Z,34.53
2018-09-11T20:27:58.951Z,34.47
2018-09-11T20:30:28.247Z,34.52
2018-09-11T20:32:54.888Z,34.59
2018-09-11T20:35:21.531Z,34.54
2018-09-11T20:37:48.175Z,34.55
2018-09-11T20:40:14.877Z,34.52
2018-09-11T20:42:42.630Z,34.66
2018-09-11T20:45:08.272Z,34.60
2018-09-11T20:47:34.845Z,34.63
2018-09-11T20:50:01.630Z,34.56
2018-09-11T20:52:28.310Z,34.54
2018-09-11T20:54:55.108Z,34.57
2018-09-11T20:57:21.810Z,34.69
2018-09-11T20:59:48.447Z,34.63
2018-09-11T21:02:15.099Z,34.68
2018-09-11T21:04:41.730Z,34.72
2018-09-11T21:07:08.377Z,34.74
2018-09-11T21:09:35.107Z,34.73
2018-09-11T21:12:01.752Z,34.62
2018-09-11T21:14:28.441Z,34.81
2018-09-11T21:16:55.082Z,34.70
2018-09-11T21:19:21.767Z,34.81
2018-09-11T21:21:48.400Z,34.78
2018-09-11T21:24:15.168Z,34.76
2018-09-11T21:26:41.800Z,34.77
2018-09-11T21:29:08.499Z,34.73
2018-09-11T21:31:35.139Z,34.77
2018-09-11T21:34:01.834Z,34.83
2018-09-11T21:36:28.625Z,34.87
2018-09-11T21:38:55.280Z,34.87
2018-09-11T21:41:22.059Z,34.86
2018-09-11T21:43:48.696Z,34.88
2018-09-11T21:46:15.349Z,34.83
2018-09-11T21:48:42.027Z,34.92
2018-09-11T21:51:08.639Z,34.97
2018-09-11T21:53:35.312Z,35.00
2018-09-11T21:56:01.982Z,35.02
2018-09-11T21:58:28.588Z,35.10
2018-09-11T22:00:55.235Z,35.15
2018-09-11T22:03:21.918Z,35.10
2018-09-11T22:05:48.635Z,35.12
2018-09-11T22:08:15.257Z,35.20
2018-09-11T22:10:41.952Z,35.13
2018-09-11T22:13:09.997Z,35.06
2018-09-11T22:15:35.329Z,35.08
2018-09-11T22:18:02.026Z,35.21
2018-09-11T22:20:28.749Z,35.23
2018-09-11T22:22:55.378Z,35.18
2018-09-11T22:25:22.023Z,35.23
2018-09-11T22:27:48.766Z,35.29
2018-09-11T22:30:18.093Z,35.23
2018-09-11T22:32:44.796Z,35.27
2018-09-11T22:35:11.417Z,35.21
2018-09-11T22:37:38.110Z,35.26
2018-09-11T22:40:04.751Z,35.34
2018-09-11T22:42:31.392Z,35.36
2018-09-11T22:44:58.157Z,35.38
2018-09-11T22:47:24.833Z,35.38
2018-09-11T22:49:51.568Z,35.37
2018-09-11T22:52:19.623Z,35.45
2018-09-11T22:54:44.952Z,35.40
2018-09-11T22:57:11.585Z,35.47
2018-09-11T22:59:38.227Z,35.55
2018-09-11T23:02:11.389Z,35.64
2018-09-11T23:04:38.068Z,35.55
2018-09-11T23:07:07.982Z,35.47
2018-09-11T23:09:34.672Z,35.59
2018-09-11T23:12:01.440Z,35.64
2018-09-11T23:14:28.056Z,35.75
2018-09-11T23:16:54.689Z,35.67
2018-09-11T23:19:21.327Z,35.60
2018-09-11T23:21:47.978Z,35.76
2018-09-11T23:24:14.614Z,35.72
2018-09-11T23:26:41.352Z,35.73
2018-09-11T23:29:08.019Z,35.79
2018-09-11T23:31:34.656Z,35.70
2018-09-11T23:34:02.246Z,35.71
2018-09-11T23:36:28.975Z,35.77
2018-09-11T23:38:55.753Z,35.73
2018-09-11T23:41:24.494Z,35.81
2018-09-11T23:43:52.099Z,35.84
2018-09-11T23:46:18.782Z,35.87
2018-09-11T23:48:45.423Z,35.78
2018-09-11T23:51:12.063Z,35.85
2018-09-11T23:53:38.724Z,35.87
2018-09-11T23:56:05.365Z,35.82
2018-09-11T23:58:32.116Z,35.81
